createdAt,value
2022-11-22T00:00:44.359Z,15.10
2022-11-22T00:03:11.688Z,15.20
2022-11-22T00:05:38.658Z,15.43
2022-11-22T00:08:06.252Z,16.13
2022-11-22T00:10:33.645Z,16.23
2022-11-22T00:13:01.277Z,16.90
2022-11-22T00:15:28.363Z,16.27
2022-11-22T00:17:55.584Z,14.60
2022-11-22T00:20:22.853Z,15.53
2022-11-22T00:22:49.768Z,15.90
2022-11-22T00:25:16.912Z,15.97
2022-11-22T00:27:43.963Z,15.80
2022-11-22T00:30:11.557Z,16.30
2022-11-22T00:32:38.578Z,16.83
2022-11-22T00:35:06.596Z,17.27
2022-11-22T00:37:33.636Z,17.57
2022-11-22T00:40:00.766Z,16.50
2022-11-22T00:42:27.792Z,15.33
2022-11-22T00:44:54.733Z,16.23
2022-11-22T00:47:21.698Z,16.37
2022-11-22T00:49:48.608Z,18.27
2022-11-22T00:52:15.534Z,17.80
2022-11-22T00:54:42.493Z,18.70
2022-11-22T00:57:09.322Z,18.13
2022-11-22T00:59:36.230Z,17.30
2022-11-22T01:02:03.175Z,17.63
2022-11-22T01:04:30.196Z,16.93
2022-11-22T01:06:57.127Z,15.37
2022-11-22T01:09:25.398Z,14.50
2022-11-22T01:11:52.838Z,15.73
2022-11-22T01:14:20.328Z,17.57
2022-11-22T01:16:48.183Z,17.60
2022-11-22T01:19:15.542Z,19.63
2022-11-22T01:21:42.675Z,17.50
2022-11-22T01:24:10.088Z,42.17
2022-11-22T01:26:37.292Z,23.80
2022-11-22T01:29:05.228Z,17.87
2022-11-22T01:31:32.413Z,15.20
2022-11-22T01:33:59.937Z,16.73
2022-11-22T01:36:28.330Z,16.20
2022-11-22T01:38:55.745Z,17.20
2022-11-22T01:41:23.052Z,17.83
2022-11-22T01:43:50.028Z,18.43
2022-11-22T01:46:43.140Z,14.85
2022-11-22T01:49:21.618Z,16.30
2022-11-22T01:51:51.956Z,17.43
2022-11-22T01:54:25.058Z,15.37
2022-11-22T01:56:57.568Z,15.13
2022-11-22T01:59:29.740Z,16.50
2022-11-22T02:01:57.744Z,18.50
2022-11-22T02:04:28.667Z,14.80
2022-11-22T02:07:25.948Z,14.67
2022-11-22T02:09:53.937Z,15.00
2022-11-22T02:12:28.013Z,15.40
2022-11-22T02:14:56.237Z,14.87
2022-11-22T02:17:26.759Z,16.80
2022-11-22T02:19:53.963Z,12.63
2022-11-22T02:22:56.313Z,14.93
2022-11-22T02:25:59.751Z,14.40
2022-11-22T02:28:31.287Z,15.50
2022-11-22T02:30:58.311Z,16.20
2022-11-22T02:33:25.314Z,16.60
2022-11-22T02:35:52.842Z,15.77
2022-11-22T02:38:31.767Z,15.23
2022-11-22T02:41:09.793Z,15.20
2022-11-22T02:43:46.578Z,15.03
2022-11-22T02:46:20.714Z,17.20
2022-11-22T02:48:48.951Z,15.20
2022-11-22T02:51:20.259Z,14.67
2022-11-22T02:53:50.581Z,15.47
2022-11-22T02:56:18.107Z,14.20
2022-11-22T02:58:45.629Z,15.23
2022-11-22T03:01:13.993Z,14.23
2022-11-22T03:03:41.011Z,16.37
2022-11-22T03:06:08.179Z,13.27
2022-11-22T03:08:35.132Z,15.27
2022-11-22T03:11:02.034Z,14.60
2022-11-22T03:13:28.967Z,16.87
2022-11-22T03:15:55.979Z,15.03
2022-11-22T03:18:23.377Z,16.60
2022-11-22T03:20:50.335Z,16.30
2022-11-22T03:23:17.372Z,14.13
2022-11-22T03:25:44.363Z,15.37
2022-11-22T03:28:11.333Z,14.27
2022-11-22T03:30:42.570Z,14.80
2022-11-22T03:33:10.103Z,14.77
2022-11-22T03:35:37.862Z,15.87
2022-11-22T03:38:05.828Z,14.40
2022-11-22T03:40:33.749Z,16.13
2022-11-22T03:43:01.789Z,14.60
2022-11-22T03:45:29.995Z,17.10
2022-11-22T03:47:57.807Z,16.47
2022-11-22T03:50:25.452Z,16.23
2022-11-22T03:52:52.343Z,15.63
2022-11-22T03:55:19.353Z,17.10
2022-11-22T03:57:46.412Z,17.80
2022-11-22T04:00:14.344Z,18.37
2022-11-22T04:02:41.299Z,18.07
2022-11-22T04:05:08.703Z,18.70
2022-11-22T04:07:35.781Z,17.30
2022-11-22T04:10:03.131Z,16.70
2022-11-22T04:12:31.113Z,18.30
2022-11-22T04:15:07.308Z,18.57
2022-11-22T04:17:40.563Z,19.80
2022-11-22T04:20:42.690Z,17.87
2022-11-22T04:23:17.213Z,17.60
2022-11-22T04:25:48.302Z,18.07
2022-11-22T04:28:18.248Z,18.30
2022-11-22T04:31:04.671Z,18.27
2022-11-22T04:33:31.630Z,17.23
2022-11-22T04:35:58.630Z,19.27
2022-11-22T04:38:26.672Z,18.00
2022-11-22T04:40:53.627Z,17.83
2022-11-22T04:43:48.556Z,17.77
2022-11-22T04:46:16.328Z,17.50
2022-11-22T04:48:43.475Z,17.97
2022-11-22T04:51:33.382Z,18.00
2022-11-22T04:54:00.493Z,18.77
2022-11-22T04:56:27.467Z,20.57
2022-11-22T04:58:55.187Z,18.80
2022-11-22T05:01:22.287Z,19.23
2022-11-22T05:03:49.312Z,18.87
2022-11-22T05:06:16.808Z,17.07
2022-11-22T05:08:43.749Z,18.77
2022-11-22T05:11:10.824Z,19.70
2022-11-22T05:13:42.252Z,18.20
2022-11-22T05:16:18.123Z,17.97
2022-11-22T05:18:59.280Z,16.83
2022-11-22T05:21:29.082Z,19.07
2022-11-22T05:23:56.690Z,17.60
2022-11-22T05:26:36.395Z,17.17
2022-11-22T05:29:09.977Z,17.53
2022-11-22T05:31:40.011Z,17.50
2022-11-22T05:34:07.516Z,17.77
2022-11-22T05:36:35.687Z,18.03
2022-11-22T05:39:03.843Z,18.57
2022-11-22T05:41:31.083Z,17.40
2022-11-22T05:43:58.419Z,18.33
2022-11-22T05:46:29.166Z,19.03
2022-11-22T05:48:58.701Z,21.67
2022-11-22T05:51:33.926Z,25.47
2022-11-22T05:54:02.345Z,19.97
2022-11-22T05:56:29.342Z,20.83
2022-11-22T05:58:56.280Z,18.37
2022-11-22T06:01:24.903Z,18.27
2022-11-22T06:03:52.841Z,17.93
2022-11-22T06:06:20.379Z,18.43
2022-11-22T06:08:49.013Z,17.07
2022-11-22T06:11:27.116Z,18.20
2022-11-22T06:13:58.109Z,18.40
2022-11-22T06:16:26.855Z,16.83
2022-11-22T06:18:54.495Z,17.90
2022-11-22T06:21:24.173Z,17.87
2022-11-22T06:23:55.436Z,16.37
2022-11-22T06:26:24.764Z,18.43
2022-11-22T06:28:52.215Z,17.70
2022-11-22T06:31:28.025Z,16.90
2022-11-22T06:33:59.909Z,18.97
2022-11-22T06:36:30.787Z,20.43
2022-11-22T06:38:58.378Z,22.10
2022-11-22T06:41:28.658Z,21.30
2022-11-22T06:43:58.751Z,19.90
2022-11-22T06:46:27.681Z,22.77
2022-11-22T06:48:54.656Z,18.23
2022-11-22T06:51:28.883Z,19.60
2022-11-22T06:53:58.061Z,19.60
2022-11-22T06:56:32.460Z,19.57
2022-11-22T06:59:06.566Z,19.10
2022-11-22T07:01:35.497Z,18.97
2022-11-22T07:04:03.970Z,20.57
2022-11-22T07:06:35.342Z,21.70
2022-11-22T07:09:05.463Z,20.47
2022-11-22T07:11:33.073Z,20.80
2022-11-22T07:14:07.614Z,18.50
2022-11-22T07:16:37.521Z,18.80
2022-11-22T07:19:05.932Z,18.20
2022-11-22T07:21:33.229Z,21.30
2022-11-22T07:24:00.422Z,19.90
2022-11-22T07:26:28.863Z,20.93
2022-11-22T07:28:56.096Z,20.20
2022-11-22T07:31:23.544Z,18.63
2022-11-22T07:33:50.508Z,20.77
2022-11-22T07:36:22.943Z,22.33
2022-11-22T07:38:50.889Z,21.63
2022-11-22T07:41:19.911Z,19.10
2022-11-22T07:43:47.566Z,21.73
2022-11-22T07:46:31.603Z,21.23
2022-11-22T07:49:00.552Z,20.57
2022-11-22T07:51:28.106Z,22.60
2022-11-22T07:53:56.758Z,22.53
2022-11-22T07:56:24.480Z,23.60
2022-11-22T07:58:51.547Z,23.23
2022-11-22T08:01:19.745Z,20.57
2022-11-22T08:03:47.425Z,21.10
2022-11-22T08:06:16.066Z,20.67
2022-11-22T08:08:43.063Z,22.40
2022-11-22T08:11:11.297Z,20.70
2022-11-22T08:13:38.403Z,22.80
2022-11-22T08:16:10.367Z,21.77
2022-11-22T08:18:38.668Z,21.30
2022-11-22T08:21:12.660Z,21.30
2022-11-22T08:23:41.280Z,20.50
2022-11-22T08:26:12.770Z,21.70
2022-11-22T08:28:41.158Z,23.17
2022-11-22T08:31:15.206Z,23.70
2022-11-22T08:33:42.504Z,21.70
2022-11-22T08:36:10.075Z,22.90
2022-11-22T08:38:37.148Z,21.37
2022-11-22T08:41:07.548Z,23.00
2022-11-22T08:43:34.533Z,19.97
2022-11-22T08:46:02.403Z,22.43
2022-11-22T08:48:32.668Z,22.73
2022-11-22T08:51:07.220Z,23.03
2022-11-22T08:53:37.217Z,21.63
2022-11-22T08:56:06.431Z,22.60
2022-11-22T08:58:34.363Z,23.63
2022-11-22T09:01:14.587Z,25.13
2022-11-22T09:03:42.522Z,22.60
2022-11-22T09:09:29.925Z,21.17
2022-11-22T09:11:50.659Z,22.10
2022-11-22T09:14:17.703Z,21.70
2022-11-22T09:16:44.748Z,25.20
2022-11-22T09:19:11.620Z,23.00
2022-11-22T09:21:38.577Z,22.07
2022-11-22T09:24:06.070Z,21.90
2022-11-22T09:26:33.298Z,23.40
2022-11-22T09:29:00.268Z,23.07
2022-11-22T09:31:27.325Z,23.67
2022-11-22T09:33:54.268Z,21.73
2022-11-22T09:36:28.940Z,24.17
2022-11-22T09:38:59.198Z,22.73
2022-11-22T09:41:57.533Z,22.20
2022-11-22T09:44:50.643Z,22.60
2022-11-22T09:47:26.417Z,22.30
2022-11-22T09:50:02.621Z,21.97
2022-11-22T09:53:07.994Z,23.07
2022-11-22T09:55:58.774Z,23.53
2022-11-22T09:58:58.857Z,21.17
2022-11-22T10:01:50.430Z,24.07
2022-11-22T10:04:25.283Z,21.60
2022-11-22T10:07:23.320Z,22.63
2022-11-22T10:10:06.256Z,24.13
2022-11-22T10:12:46.370Z,21.70
2022-11-22T10:15:39.844Z,23.23
2022-11-22T10:18:18.933Z,23.37
2022-11-22T10:20:48.867Z,19.70
2022-11-22T10:23:23.217Z,21.63
2022-11-22T10:26:06.849Z,21.70
2022-11-22T10:29:05.167Z,21.67
2022-11-22T10:31:35.268Z,21.20
2022-11-22T10:34:02.105Z,20.90
2022-11-22T10:36:45.938Z,22.47
2022-11-22T10:39:18.681Z,21.90
2022-11-22T10:42:01.392Z,22.50
2022-11-22T10:45:02.340Z,21.63
2022-11-22T10:48:03.086Z,22.77
2022-11-22T10:50:54.227Z,22.13
2022-11-22T10:53:47.573Z,19.87
2022-11-22T10:56:34.542Z,21.00
2022-11-22T10:59:41.939Z,20.30
2022-11-22T11:02:33.648Z,21.93
2022-11-22T11:05:05.070Z,18.07
2022-11-22T11:07:32.679Z,21.00
2022-11-22T11:10:16.115Z,19.83
2022-11-22T11:13:02.921Z,20.30
2022-11-22T11:15:48.135Z,19.33
2022-11-22T11:18:31.533Z,18.83
2022-11-22T11:20:58.459Z,17.60
2022-11-22T11:23:25.518Z,18.23
2022-11-22T11:25:52.679Z,21.03
2022-11-22T11:28:30.328Z,16.60
2022-11-22T11:31:11.419Z,18.40
2022-11-22T11:33:41.210Z,20.33
2022-11-22T11:36:25.007Z,21.70
2022-11-22T11:38:57.958Z,19.07
2022-11-22T11:41:32.356Z,18.20
2022-11-22T11:44:05.272Z,17.90
2022-11-22T11:46:41.267Z,18.10
2022-11-22T11:49:17.749Z,18.07
2022-11-22T11:52:10.663Z,18.03
2022-11-22T11:54:46.874Z,16.20
2022-11-22T11:57:31.677Z,16.70
2022-11-22T12:00:03.863Z,15.50
2022-11-22T12:02:40.964Z,16.80
2022-11-22T12:05:14.051Z,18.00
2022-11-22T12:07:46.864Z,17.90
2022-11-22T12:10:38.739Z,18.07
2022-11-22T12:13:32.349Z,18.70
2022-11-22T12:16:22.004Z,17.67
2022-11-22T12:19:30.288Z,17.93
2022-11-22T12:22:49.342Z,18.33
2022-11-22T12:25:32.938Z,18.60
2022-11-22T12:28:22.271Z,19.33
2022-11-22T12:31:36.025Z,18.47
2022-11-22T12:34:34.560Z,19.20
2022-11-22T12:37:09.402Z,19.67
2022-11-22T12:39:38.738Z,18.00
2022-11-22T12:42:54.193Z,18.90
2022-11-22T12:45:36.967Z,18.43
2022-11-22T12:48:16.969Z,18.57
2022-11-22T12:50:51.627Z,17.93
2022-11-22T12:53:28.732Z,18.37
2022-11-22T12:56:11.234Z,20.17
2022-11-22T12:59:06.185Z,18.57
2022-11-22T13:01:42.957Z,18.70
2022-11-22T13:04:10.348Z,18.37
2022-11-22T13:07:05.997Z,18.03
2022-11-22T13:09:42.994Z,18.13
2022-11-22T13:12:15.155Z,18.93
2022-11-22T13:14:46.030Z,19.23
2022-11-22T13:17:17.321Z,18.47
2022-11-22T13:20:05.180Z,15.70
2022-11-22T13:23:07.504Z,16.57
2022-11-22T13:26:03.629Z,17.07
2022-11-22T13:28:38.776Z,17.50
2022-11-22T13:31:12.254Z,18.93
2022-11-22T13:33:59.455Z,16.13
2022-11-22T13:36:32.549Z,16.17
2022-11-22T13:39:04.500Z,15.67
2022-11-22T13:41:42.440Z,19.70
2022-11-22T13:44:27.794Z,18.70
2022-11-22T13:47:24.186Z,17.00
2022-11-22T13:49:54.109Z,15.63
2022-11-22T13:52:20.998Z,17.97
2022-11-22T13:54:47.953Z,15.50
2022-11-22T13:57:38.916Z,14.57
2022-11-22T14:00:15.096Z,16.33
2022-11-22T14:02:50.028Z,15.90
2022-11-22T14:05:39.663Z,16.23
2022-11-22T14:08:36.291Z,17.50
2022-11-22T14:11:15.371Z,25.13
2022-11-22T14:14:23.440Z,17.50
2022-11-22T14:17:02.659Z,14.07
2022-11-22T14:20:07.872Z,15.50
2022-11-22T14:22:42.300Z,15.80
2022-11-22T14:25:18.201Z,15.73
2022-11-22T14:28:23.389Z,15.47
2022-11-22T14:30:54.196Z,16.30
2022-11-22T14:33:23.652Z,15.10
2022-11-22T14:36:09.614Z,15.30
2022-11-22T14:38:41.234Z,16.23
2022-11-22T14:41:26.826Z,17.03
2022-11-22T14:44:11.496Z,15.77
2022-11-22T14:46:57.043Z,18.13
2022-11-22T14:49:46.387Z,16.63
2022-11-22T14:52:27.992Z,18.27
2022-11-22T14:55:00.532Z,15.77
2022-11-22T14:57:30.125Z,16.77
2022-11-22T15:00:09.011Z,17.07
2022-11-22T15:03:15.968Z,21.43
2022-11-22T15:09:13.282Z,20.60
2022-11-22T15:09:42.116Z,19.07
2022-11-22T15:12:26.109Z,19.20
2022-11-22T15:57:26.644Z,23.47
2022-11-22T15:59:55.244Z,20.80
2022-11-22T16:02:27.802Z,22.60
2022-11-22T16:06:09.438Z,23.00
2022-11-22T16:07:50.185Z,22.17
2022-11-22T16:10:25.255Z,21.80
2022-11-22T16:12:53.044Z,21.80
2022-11-22T16:15:27.611Z,24.17
2022-11-22T16:18:18.305Z,23.20
2022-11-22T16:21:07.476Z,21.00
2022-11-22T16:23:37.491Z,21.50
2022-11-22T16:26:30.980Z,22.20
2022-11-22T16:29:29.671Z,19.80
2022-11-22T16:32:11.385Z,24.47
2022-11-22T16:34:42.386Z,22.50
2022-11-22T16:37:38.220Z,23.10
2022-11-22T16:40:08.063Z,22.43
2022-11-22T16:42:38.306Z,22.50
2022-11-22T16:45:13.785Z,21.67
2022-11-22T16:47:40.805Z,21.30
2022-11-22T16:50:15.658Z,22.00
2022-11-22T16:52:45.202Z,22.53
2022-11-22T16:55:17.119Z,20.63
2022-11-22T16:57:44.068Z,22.10
2022-11-22T17:00:12.866Z,18.50
2022-11-22T17:02:41.365Z,18.63
2022-11-22T17:05:17.003Z,18.80
2022-11-22T17:07:44.094Z,17.93
2022-11-22T17:10:11.470Z,18.27
2022-11-22T17:12:38.850Z,18.30
2022-11-22T17:15:06.609Z,19.63
2022-11-22T17:17:33.592Z,21.90
2022-11-22T17:20:00.489Z,20.60
2022-11-22T17:22:27.761Z,24.43
2022-11-22T17:24:54.798Z,24.30
2022-11-22T17:27:21.786Z,20.57
2022-11-22T17:29:50.970Z,19.23
2022-11-22T17:32:19.140Z,18.60
2022-11-22T17:34:46.020Z,19.17
2022-11-22T17:37:13.731Z,19.97
2022-11-22T17:39:41.227Z,19.30
2022-11-22T17:42:08.748Z,19.40
2022-11-22T17:44:35.812Z,21.27
2022-11-22T17:47:02.725Z,19.20
2022-11-22T17:49:30.051Z,21.10
2022-11-22T17:51:57.289Z,19.17
2022-11-22T17:54:24.286Z,14.43
2022-11-22T17:56:51.446Z,15.57
2022-11-22T17:59:18.504Z,19.90
2022-11-22T18:01:45.508Z,21.90
2022-11-22T18:04:14.687Z,19.00
2022-11-22T18:06:41.809Z,21.10
2022-11-22T18:09:09.799Z,22.07
2022-11-22T18:11:36.680Z,20.47
2022-11-22T18:14:03.823Z,18.50
2022-11-22T18:16:31.618Z,24.37
2022-11-22T18:19:00.727Z,18.77
2022-11-22T18:21:30.642Z,23.27
2022-11-22T18:23:59.424Z,22.27
2022-11-22T18:26:42.845Z,25.67
2022-11-22T18:32:01.314Z,17.73
2022-11-22T18:34:29.791Z,19.57
2022-11-22T18:37:04.985Z,19.80
2022-11-22T18:39:38.640Z,20.67
2022-11-22T18:42:10.929Z,21.20
2022-11-22T18:44:37.900Z,20.10
2022-11-22T18:47:05.169Z,20.07
2022-11-22T18:49:32.805Z,20.97
2022-11-22T18:52:00.358Z,20.50
2022-11-22T18:54:27.373Z,21.30
2022-11-22T18:56:54.496Z,21.43
2022-11-22T18:59:21.458Z,22.90
2022-11-22T19:01:48.531Z,22.70
2022-11-22T19:04:16.430Z,23.77
2022-11-22T19:06:45.307Z,22.23
2022-11-22T19:09:12.513Z,22.17
2022-11-22T19:11:39.472Z,24.57
2022-11-22T19:14:06.647Z,25.00
2022-11-22T19:16:33.804Z,24.00
2022-11-22T19:19:00.839Z,23.80
2022-11-22T19:21:29.969Z,23.93
2022-11-22T19:23:57.378Z,24.80
2022-11-22T19:26:28.050Z,27.50
2022-11-22T19:28:58.063Z,25.20
2022-11-22T19:31:29.556Z,24.10
2022-11-22T19:33:58.715Z,25.67
2022-11-22T19:36:33.227Z,26.10
2022-11-22T19:39:03.854Z,22.87
2022-11-22T19:41:31.545Z,21.30
2022-11-22T19:43:58.647Z,23.40
2022-11-22T19:46:26.419Z,23.50
2022-11-22T19:48:56.987Z,25.53
2022-11-22T19:51:26.107Z,24.23
2022-11-22T19:53:54.662Z,24.00
2022-11-22T19:56:22.201Z,23.03
2022-11-22T19:58:54.542Z,22.80
2022-11-22T20:01:24.589Z,21.90
2022-11-22T20:03:54.998Z,23.93
2022-11-22T20:06:22.111Z,22.87
2022-11-22T20:08:57.328Z,22.17
2022-11-22T20:11:30.504Z,25.57
2022-11-22T20:14:06.933Z,23.90
2022-11-22T20:16:49.247Z,22.97
2022-11-22T20:19:22.462Z,23.97
2022-11-22T20:21:55.796Z,26.50
2022-11-22T20:24:26.475Z,24.17
2022-11-22T20:26:58.080Z,24.77
2022-11-22T20:29:26.155Z,25.20
2022-11-22T20:31:53.188Z,22.53
2022-11-22T20:34:29.150Z,25.00
2022-11-22T20:36:57.640Z,21.80
2022-11-22T20:39:29.198Z,21.33
2022-11-22T20:42:25.872Z,21.50
2022-11-22T20:44:56.412Z,23.47
2022-11-22T20:47:24.300Z,23.33
2022-11-22T20:49:51.313Z,23.20
2022-11-22T20:52:19.601Z,22.53
2022-11-22T20:54:47.646Z,22.93
2022-11-22T20:57:19.075Z,22.93
2022-11-22T20:59:46.786Z,20.50
2022-11-22T21:02:21.542Z,22.50
2022-11-22T21:04:50.280Z,22.90
2022-11-22T21:07:17.319Z,23.30
2022-11-22T21:09:44.289Z,20.50
2022-11-22T21:12:13.573Z,23.83
2022-11-22T21:14:43.289Z,20.30
2022-11-22T21:17:35.869Z,21.03
2022-11-22T21:19:59.066Z,22.57
2022-11-22T21:22:31.531Z,22.00
2022-11-22T21:25:13.362Z,23.10
2022-11-22T21:27:58.728Z,22.80
2022-11-22T21:30:27.107Z,20.47
2022-11-22T21:32:54.025Z,20.00
2022-11-22T21:35:20.996Z,19.47
2022-11-22T21:37:48.017Z,22.20
2022-11-22T21:40:15.385Z,21.57
2022-11-22T21:42:44.744Z,18.97
2022-11-22T21:45:12.086Z,22.97
2022-11-22T21:47:39.138Z,23.23
2022-11-22T21:50:11.493Z,19.67
2022-11-22T21:52:39.096Z,21.30
2022-11-22T21:55:07.764Z,19.17
2022-11-22T21:57:34.607Z,20.70
2022-11-22T22:00:01.587Z,18.97
2022-11-22T22:02:30.727Z,21.00
2022-11-22T22:04:57.793Z,19.67
2022-11-22T22:07:50.650Z,19.50
2022-11-22T22:10:13.550Z,19.60
2022-11-22T22:12:41.547Z,19.30
2022-11-22T22:15:13.475Z,18.73
2022-11-22T22:17:40.834Z,18.60
2022-11-22T22:20:08.741Z,19.20
2022-11-22T22:22:37.784Z,18.93
2022-11-22T22:25:06.243Z,19.43
2022-11-22T22:27:34.746Z,20.93
2022-11-22T22:30:02.113Z,19.73
2022-11-22T22:32:29.136Z,18.33
2022-11-22T22:34:56.124Z,18.10
2022-11-22T22:37:23.125Z,17.50
2022-11-22T22:39:51.803Z,17.77
2022-11-22T22:42:20.299Z,16.87
2022-11-22T22:44:47.914Z,17.63
2022-11-22T22:47:15.040Z,19.30
2022-11-22T22:49:42.126Z,18.43
2022-11-22T22:52:09.452Z,20.90
2022-11-22T22:54:36.512Z,20.13
2022-11-22T22:57:03.771Z,20.17
2022-11-22T22:59:31.223Z,19.53
2022-11-22T23:01:58.377Z,19.57
2022-11-22T23:04:25.363Z,20.27
2022-11-22T23:06:52.440Z,22.67
2022-11-22T23:09:19.515Z,19.93
2022-11-22T23:12:04.805Z,18.47
2022-11-22T23:14:31.695Z,19.70
2022-11-22T23:16:58.727Z,18.90
2022-11-22T23:19:27.376Z,19.77
2022-11-22T23:21:55.706Z,20.77
2022-11-22T23:24:22.809Z,19.43
2022-11-22T23:26:49.719Z,18.97
2022-11-22T23:29:17.340Z,15.93
2022-11-22T23:31:44.300Z,16.87
2022-11-22T23:34:12.485Z,14.97
2022-11-22T23:36:41.219Z,15.37
2022-11-22T23:39:08.935Z,18.00
2022-11-22T23:41:35.904Z,18.37
2022-11-22T23:44:03.049Z,18.27
2022-11-22T23:46:30.160Z,16.40
2022-11-22T23:49:00.787Z,17.20
2022-11-22T23:51:31.697Z,17.33
2022-11-22T23:54:05.174Z,16.80
2022-11-22T23:56:34.579Z,15.83
2022-11-22T23:59:02.374Z,15.27
